createdAt,value
2022-12-25T00:02:06.924Z,4.40
2022-12-25T00:04:35.144Z,4.68
2022-12-25T00:07:03.170Z,4.20
2022-12-25T00:09:31.343Z,4.10
2022-12-25T00:11:59.449Z,3.85
2022-12-25T00:14:27.537Z,4.40
2022-12-25T00:16:55.592Z,6.57
2022-12-25T00:19:24.923Z,6.22
2022-12-25T00:21:52.959Z,6.07
2022-12-25T00:24:20.982Z,5.78
2022-12-25T00:26:49.177Z,6.18
2022-12-25T00:29:17.260Z,5.80
2022-12-25T00:31:45.536Z,4.68
2022-12-25T00:34:13.553Z,5.53
2022-12-25T00:36:43.039Z,5.57
2022-12-25T00:39:11.377Z,5.05
2022-12-25T00:41:57.226Z,5.05
2022-12-25T00:44:25.329Z,7.75
2022-12-25T00:46:53.540Z,11.18
2022-12-25T00:49:23.827Z,8.38
2022-12-25T00:51:53.760Z,6.75
2022-12-25T00:54:22.726Z,6.45
2022-12-25T00:56:50.717Z,5.60
2022-12-25T00:59:18.833Z,5.18
2022-12-25T01:01:47.122Z,5.35
2022-12-25T01:04:15.298Z,4.93
2022-12-25T01:06:43.361Z,4.90
2022-12-25T01:09:30.151Z,5.30
2022-12-25T01:11:58.134Z,5.15
2022-12-25T01:14:26.160Z,4.88
2022-12-25T01:16:54.246Z,4.60
2022-12-25T01:19:22.374Z,4.38
2022-12-25T01:21:50.547Z,4.80
2022-12-25T01:24:20.026Z,4.70
2022-12-25T01:26:48.255Z,4.78
2022-12-25T01:29:16.358Z,4.30
2022-12-25T01:31:44.773Z,4.20
2022-12-25T01:34:12.953Z,4.53
2022-12-25T01:36:41.011Z,4.30
2022-12-25T01:39:09.123Z,4.55
2022-12-25T01:41:38.616Z,4.22
2022-12-25T01:44:09.473Z,4.45
2022-12-25T01:46:37.924Z,4.30
2022-12-25T01:49:09.436Z,4.25
2022-12-25T01:51:41.193Z,3.92
2022-12-25T01:54:14.072Z,3.92
2022-12-25T01:56:46.548Z,4.07
2022-12-25T01:59:18.678Z,4.03
2022-12-25T02:01:47.584Z,4.35
2022-12-25T02:04:21.332Z,4.55
2022-12-25T02:06:52.484Z,4.40
2022-12-25T02:09:20.467Z,4.03
2022-12-25T02:11:59.198Z,4.00
2022-12-25T02:14:31.167Z,4.28
2022-12-25T02:17:08.287Z,4.18
2022-12-25T02:20:04.092Z,4.10
2022-12-25T02:22:43.361Z,4.40
2022-12-25T02:25:31.696Z,3.95
2022-12-25T02:28:14.304Z,4.60
2022-12-25T02:30:45.687Z,4.30
2022-12-25T02:33:35.177Z,4.20
2022-12-25T02:36:08.587Z,4.13
2022-12-25T02:39:01.009Z,4.47
2022-12-25T02:41:31.727Z,4.43
2022-12-25T02:44:22.104Z,3.80
2022-12-25T02:47:08.528Z,3.70
2022-12-25T02:49:55.183Z,3.63
2022-12-25T02:52:43.072Z,3.83
2022-12-25T02:55:32.077Z,4.30
2022-12-25T02:58:34.529Z,3.95
2022-12-25T03:01:25.139Z,3.85
2022-12-25T03:04:15.455Z,3.85
2022-12-25T03:06:58.247Z,3.95
2022-12-25T03:09:45.584Z,4.30
2022-12-25T03:12:23.852Z,4.20
2022-12-25T03:15:09.679Z,3.83
2022-12-25T03:17:39.233Z,4.50
2022-12-25T03:20:27.228Z,4.57
2022-12-25T03:23:13.667Z,3.80
2022-12-25T03:25:59.645Z,3.83
2022-12-25T03:28:27.901Z,4.03
2022-12-25T03:31:13.757Z,4.32
2022-12-25T03:34:23.655Z,3.90
2022-12-25T03:37:10.027Z,4.00
2022-12-25T03:40:04.213Z,4.47
2022-12-25T03:42:56.681Z,4.55
2022-12-25T03:45:49.143Z,4.10
2022-12-25T03:48:36.317Z,4.22
2022-12-25T03:51:28.838Z,4.40
2022-12-25T03:54:20.421Z,4.28
2022-12-25T03:57:06.907Z,4.70
2022-12-25T03:59:52.243Z,4.25
2022-12-25T04:02:37.850Z,4.43
2022-12-25T04:05:24.080Z,3.80
2022-12-25T04:08:11.134Z,3.90
2022-12-25T04:10:56.486Z,3.80
2022-12-25T04:13:41.645Z,3.83
2022-12-25T04:16:27.199Z,4.07
2022-12-25T04:19:12.904Z,7.38
2022-12-25T04:21:58.577Z,14.35
2022-12-25T04:24:45.311Z,5.65
2022-12-25T04:27:30.845Z,5.28
2022-12-25T04:30:16.444Z,3.85
2022-12-25T04:33:13.689Z,4.88
2022-12-25T04:35:59.229Z,4.10
2022-12-25T04:38:27.311Z,4.18
2022-12-25T04:40:56.856Z,4.07
2022-12-25T04:43:25.505Z,4.40
2022-12-25T04:45:54.849Z,4.38
2022-12-25T04:48:23.402Z,4.10
2022-12-25T04:50:51.545Z,4.03
2022-12-25T04:53:20.429Z,4.07
2022-12-25T04:55:48.475Z,3.88
2022-12-25T04:58:17.819Z,3.72
2022-12-25T05:00:45.871Z,3.88
2022-12-25T05:03:14.125Z,3.85
2022-12-25T05:05:42.271Z,4.07
2022-12-25T05:08:10.257Z,3.90
2022-12-25T05:10:41.060Z,3.92
2022-12-25T05:13:09.143Z,4.00
2022-12-25T05:15:40.729Z,3.75
2022-12-25T05:18:08.876Z,3.60
2022-12-25T05:20:40.297Z,3.60
2022-12-25T05:23:10.258Z,3.78
2022-12-25T05:25:40.885Z,3.58
2022-12-25T05:28:09.267Z,3.65
2022-12-25T05:30:38.736Z,3.50
2022-12-25T05:33:06.843Z,3.60
2022-12-25T05:35:37.083Z,3.53
2022-12-25T05:38:05.257Z,3.67
2022-12-25T05:40:33.499Z,3.70
2022-12-25T05:43:01.677Z,3.22
2022-12-25T05:45:29.798Z,3.53
2022-12-25T05:47:59.296Z,3.70
2022-12-25T05:50:27.381Z,3.70
2022-12-25T05:52:55.484Z,3.92
2022-12-25T05:55:23.522Z,4.00
2022-12-25T05:57:51.633Z,3.45
2022-12-25T06:00:20.960Z,3.60
2022-12-25T06:02:49.159Z,3.78
2022-12-25T06:05:18.713Z,3.78
2022-12-25T06:07:46.964Z,4.07
2022-12-25T06:10:15.148Z,3.90
2022-12-25T06:12:43.131Z,3.90
2022-12-25T06:15:11.752Z,6.00
2022-12-25T06:17:39.815Z,3.67
2022-12-25T06:20:09.217Z,3.65
2022-12-25T06:22:38.599Z,3.33
2022-12-25T06:25:08.570Z,4.07
2022-12-25T06:27:36.708Z,3.20
2022-12-25T06:30:05.518Z,4.55
2022-12-25T06:32:33.550Z,3.22
2022-12-25T06:35:01.501Z,3.60
2022-12-25T06:37:29.587Z,5.10
2022-12-25T06:39:59.004Z,4.40
2022-12-25T06:42:27.187Z,4.20
2022-12-25T06:44:55.237Z,4.10
2022-12-25T06:47:23.299Z,3.22
2022-12-25T06:49:51.261Z,3.42
2022-12-25T06:52:19.259Z,3.47
2022-12-25T06:54:47.906Z,3.60
2022-12-25T06:57:17.300Z,3.53
2022-12-25T06:59:49.799Z,3.70
2022-12-25T07:02:24.346Z,6.15
2022-12-25T07:04:53.687Z,9.05
2022-12-25T07:07:23.733Z,10.30
2022-12-25T07:09:51.934Z,8.13
2022-12-25T07:12:23.780Z,25.40
2022-12-25T07:14:54.651Z,29.27
2022-12-25T07:17:23.975Z,32.03
2022-12-25T07:19:52.588Z,35.13
2022-12-25T07:22:20.751Z,34.72
2022-12-25T07:24:48.863Z,34.63
2022-12-25T07:27:16.949Z,36.10
2022-12-25T07:29:46.431Z,28.92
2022-12-25T07:32:14.552Z,23.67
2022-12-25T07:34:42.600Z,16.67
2022-12-25T07:37:10.744Z,13.43
2022-12-25T07:39:38.691Z,15.07
2022-12-25T07:42:08.148Z,17.05
2022-12-25T07:44:36.409Z,22.10
2022-12-25T07:47:06.046Z,27.38
2022-12-25T07:49:34.085Z,29.95
2022-12-25T07:52:02.230Z,30.27
2022-12-25T07:54:30.234Z,26.00
2022-12-25T07:56:58.356Z,15.25
2022-12-25T07:59:26.555Z,22.63
2022-12-25T08:01:54.765Z,24.73
2022-12-25T08:04:24.448Z,25.63
2022-12-25T08:06:52.463Z,18.30
2022-12-25T08:09:20.504Z,19.38
2022-12-25T08:11:48.751Z,16.10
2022-12-25T08:14:16.865Z,13.27
2022-12-25T08:16:46.567Z,12.20
2022-12-25T08:19:15.651Z,9.88
2022-12-25T08:21:45.027Z,9.07
2022-12-25T08:24:13.129Z,7.57
2022-12-25T08:26:41.269Z,7.03
2022-12-25T08:29:10.672Z,8.45
2022-12-25T08:31:45.760Z,7.68
2022-12-25T08:34:14.334Z,7.47
2022-12-25T08:36:42.405Z,8.00
2022-12-25T08:39:11.926Z,8.10
2022-12-25T08:41:40.434Z,7.47
2022-12-25T08:44:08.869Z,6.85
2022-12-25T08:46:37.339Z,7.72
2022-12-25T08:49:05.605Z,7.18
2022-12-25T08:51:34.394Z,7.72
2022-12-25T08:54:02.528Z,10.00
2022-12-25T08:56:32.702Z,10.43
2022-12-25T08:59:00.713Z,12.75
2022-12-25T09:01:28.857Z,11.60
2022-12-25T09:03:56.954Z,9.85
2022-12-25T09:06:24.941Z,10.95
2022-12-25T09:08:52.997Z,11.20
2022-12-25T09:11:21.889Z,7.13
2022-12-25T09:13:51.499Z,10.57
2022-12-25T09:16:22.362Z,8.10
2022-12-25T09:18:51.151Z,6.35
2022-12-25T09:21:20.354Z,5.93
2022-12-25T09:23:48.609Z,5.20
2022-12-25T09:26:18.675Z,4.85
2022-12-25T09:28:51.883Z,5.53
2022-12-25T09:31:23.820Z,5.10
2022-12-25T09:33:52.677Z,4.32
2022-12-25T09:36:23.496Z,4.00
2022-12-25T09:38:51.765Z,3.67
2022-12-25T09:41:28.906Z,3.33
2022-12-25T09:44:04.111Z,3.78
2022-12-25T09:46:41.246Z,3.13
2022-12-25T09:49:20.628Z,3.60
2022-12-25T09:51:54.469Z,3.00
2022-12-25T09:54:27.954Z,2.78
2022-12-25T09:56:55.975Z,2.70
2022-12-25T09:59:26.280Z,3.13
2022-12-25T10:02:20.667Z,3.92
2022-12-25T10:05:05.984Z,3.90
2022-12-25T10:07:42.159Z,4.20
2022-12-25T10:10:25.410Z,3.72
2022-12-25T10:13:01.084Z,3.88
2022-12-25T10:15:39.214Z,3.65
2022-12-25T10:18:33.414Z,3.80
2022-12-25T10:21:05.688Z,4.00
2022-12-25T10:23:40.709Z,4.03
2022-12-25T10:26:15.738Z,4.30
2022-12-25T10:28:46.189Z,3.80
2022-12-25T10:31:21.279Z,3.58
2022-12-25T10:33:52.855Z,4.03
2022-12-25T10:36:24.415Z,4.22
2022-12-25T10:38:52.911Z,4.80
2022-12-25T10:41:34.379Z,2.90
2022-12-25T10:44:12.938Z,4.15
2022-12-25T10:46:42.510Z,4.30
2022-12-25T10:49:17.651Z,4.75
2022-12-25T10:51:45.882Z,4.10
2022-12-25T10:54:24.895Z,5.10
2022-12-25T10:56:58.037Z,5.30
2022-12-25T10:59:27.851Z,5.03
2022-12-25T11:01:57.410Z,3.20
2022-12-25T11:04:29.568Z,3.40
2022-12-25T11:07:00.276Z,3.13
2022-12-25T11:09:28.962Z,2.65
2022-12-25T11:11:57.466Z,5.40
2022-12-25T11:14:27.729Z,7.53
2022-12-25T11:16:55.977Z,3.60
2022-12-25T11:19:31.208Z,2.33
2022-12-25T11:22:01.277Z,1.98
2022-12-25T11:24:30.937Z,1.80
2022-12-25T11:27:00.894Z,1.60
2022-12-25T11:29:37.889Z,1.40
2022-12-25T11:32:12.809Z,1.40
2022-12-25T11:34:46.680Z,1.40
2022-12-25T11:37:19.100Z,1.20
2022-12-25T11:39:47.412Z,1.10
2022-12-25T11:42:21.012Z,1.17
2022-12-25T11:44:54.403Z,1.30
2022-12-25T11:47:27.360Z,1.20
2022-12-25T11:50:03.088Z,1.35
2022-12-25T11:52:37.995Z,1.10
2022-12-25T11:55:16.358Z,1.02
2022-12-25T11:57:47.944Z,1.15
2022-12-25T12:00:17.716Z,1.23
2022-12-25T12:02:50.106Z,1.63
2022-12-25T12:05:25.944Z,2.00
2022-12-25T12:08:00.118Z,2.22
2022-12-25T12:10:44.026Z,1.40
2022-12-25T12:13:26.536Z,0.98
2022-12-25T12:15:55.065Z,1.08
2022-12-25T12:18:25.089Z,1.30
2022-12-25T12:21:02.857Z,1.20
2022-12-25T12:23:33.061Z,1.30
2022-12-25T12:26:01.596Z,1.00
2022-12-25T12:28:37.654Z,0.73
2022-12-25T12:31:08.518Z,1.00
2022-12-25T12:33:39.064Z,0.70
2022-12-25T12:36:14.155Z,1.30
2022-12-25T12:38:44.717Z,1.80
2022-12-25T12:41:15.515Z,1.40
2022-12-25T12:43:46.840Z,0.80
2022-12-25T12:46:23.010Z,0.75
2022-12-25T12:49:10.291Z,0.85
2022-12-25T12:51:40.091Z,0.80
2022-12-25T12:54:28.108Z,1.70
2022-12-25T12:56:58.252Z,0.65
2022-12-25T12:59:27.286Z,0.82
2022-12-25T13:02:16.953Z,1.65
2022-12-25T13:04:56.018Z,1.00
2022-12-25T13:07:44.207Z,0.80
2022-12-25T13:10:24.449Z,0.75
2022-12-25T13:12:57.936Z,0.95
2022-12-25T13:15:28.694Z,1.88
2022-12-25T13:18:02.319Z,0.88
2022-12-25T13:20:40.047Z,0.70
2022-12-25T13:23:24.653Z,1.20
2022-12-25T13:25:56.846Z,0.90
2022-12-25T13:28:29.824Z,0.70
2022-12-25T13:31:06.949Z,0.90
2022-12-25T13:33:35.849Z,0.95
2022-12-25T13:36:04.349Z,0.70
2022-12-25T13:38:34.208Z,0.95
2022-12-25T13:41:19.656Z,1.40
2022-12-25T13:43:50.028Z,0.88
2022-12-25T13:46:26.396Z,1.10
2022-12-25T13:48:59.790Z,0.60
2022-12-25T13:51:29.911Z,0.90
2022-12-25T13:54:06.644Z,1.08
2022-12-25T13:56:36.199Z,1.10
2022-12-25T13:59:05.610Z,1.02
2022-12-25T14:01:33.807Z,0.80
2022-12-25T14:04:02.146Z,1.40
2022-12-25T14:06:33.069Z,0.95
2022-12-25T14:09:01.309Z,0.88
2022-12-25T14:11:32.376Z,0.70
2022-12-25T14:14:03.806Z,1.13
2022-12-25T14:16:32.303Z,0.90
2022-12-25T14:19:03.510Z,1.20
2022-12-25T14:21:34.647Z,1.70
2022-12-25T14:24:02.830Z,1.23
2022-12-25T14:26:34.717Z,3.35
2022-12-25T14:29:16.889Z,0.85
2022-12-25T14:31:46.942Z,0.90
2022-12-25T14:34:18.693Z,0.68
2022-12-25T14:36:50.845Z,0.90
2022-12-25T14:39:29.570Z,0.80
2022-12-25T14:41:59.301Z,34.67
2022-12-25T14:44:33.362Z,19.70
2022-12-25T14:47:06.860Z,2.05
2022-12-25T14:49:35.167Z,1.30
2022-12-25T14:52:11.171Z,1.10
2022-12-25T14:54:39.461Z,0.80
2022-12-25T14:57:16.165Z,0.90
2022-12-25T14:59:44.303Z,0.88
2022-12-25T15:02:19.999Z,1.08
2022-12-25T15:04:48.263Z,0.90
2022-12-25T15:07:31.148Z,1.30
2022-12-25T15:10:36.410Z,1.33
2022-12-25T15:12:48.778Z,1.10
2022-12-25T15:15:17.030Z,0.80
2022-12-25T15:17:45.132Z,1.10
2022-12-25T15:20:14.602Z,1.10
2022-12-25T15:23:02.823Z,1.10
2022-12-25T15:25:31.816Z,0.95
2022-12-25T15:28:01.561Z,0.90
2022-12-25T15:30:30.554Z,1.00
2022-12-25T15:32:58.585Z,1.00
2022-12-25T15:35:26.684Z,1.17
2022-12-25T15:37:54.708Z,1.15
2022-12-25T15:40:22.875Z,1.10
2022-12-25T15:42:51.276Z,1.08
2022-12-25T15:45:24.644Z,1.00
2022-12-25T15:47:53.101Z,1.15
2022-12-25T15:50:23.150Z,1.50
2022-12-25T15:52:51.647Z,4.55
2022-12-25T15:55:19.851Z,3.05
2022-12-25T15:57:49.458Z,1.80
2022-12-25T16:00:22.666Z,1.23
2022-12-25T16:02:52.289Z,1.40
2022-12-25T16:05:20.883Z,3.58
2022-12-25T16:07:49.150Z,8.63
2022-12-25T16:10:19.493Z,4.22
2022-12-25T16:12:48.024Z,1.75
2022-12-25T16:15:16.976Z,1.15
2022-12-25T16:17:45.223Z,1.20
2022-12-25T16:20:15.402Z,1.13
2022-12-25T16:22:47.217Z,1.42
2022-12-25T16:25:17.739Z,1.60
2022-12-25T16:27:46.262Z,1.40
2022-12-25T16:30:16.530Z,2.55
2022-12-25T16:32:45.415Z,1.60
2022-12-25T16:35:14.900Z,1.38
2022-12-25T16:37:43.093Z,1.50
2022-12-25T16:40:11.946Z,9.07
2022-12-25T16:42:40.409Z,5.85
2022-12-25T16:45:09.387Z,12.00
2022-12-25T16:47:37.835Z,9.38
2022-12-25T16:50:08.521Z,11.82
2022-12-25T16:52:37.940Z,4.00
2022-12-25T16:55:06.718Z,2.33
2022-12-25T16:57:35.153Z,3.67
2022-12-25T17:00:03.467Z,2.97
2022-12-25T17:02:31.873Z,2.50
2022-12-25T17:05:00.520Z,2.60
2022-12-25T17:07:28.681Z,3.78
2022-12-25T17:09:58.252Z,8.85
2022-12-25T17:12:26.400Z,2.63
2022-12-25T17:14:54.799Z,3.45
2022-12-25T17:17:23.134Z,3.10
2022-12-25T17:19:51.317Z,2.78
2022-12-25T17:22:19.451Z,3.75
2022-12-25T17:24:47.500Z,2.65
2022-12-25T17:27:16.997Z,2.95
2022-12-25T17:29:47.237Z,2.90
2022-12-25T17:32:15.418Z,2.40
2022-12-25T17:34:43.429Z,2.10
2022-12-25T17:37:11.417Z,1.70
2022-12-25T17:39:39.715Z,1.70
2022-12-25T17:42:07.725Z,2.30
2022-12-25T17:44:37.195Z,2.45
2022-12-25T17:47:05.342Z,3.72
2022-12-25T17:49:33.362Z,3.30
2022-12-25T17:52:01.407Z,4.20
2022-12-25T17:54:29.753Z,2.90
2022-12-25T17:56:57.846Z,2.15
2022-12-25T17:59:29.470Z,2.88
2022-12-25T18:02:01.967Z,2.75
2022-12-25T18:04:30.442Z,2.40
2022-12-25T18:06:58.451Z,2.28
2022-12-25T18:09:26.447Z,3.38
2022-12-25T18:11:54.484Z,3.28
2022-12-25T18:14:22.859Z,4.22
2022-12-25T18:16:50.824Z,3.67
2022-12-25T18:19:20.473Z,2.70
2022-12-25T18:21:48.589Z,2.50
2022-12-25T18:24:16.645Z,4.18
2022-12-25T18:26:45.637Z,2.75
2022-12-25T18:29:13.756Z,3.03
2022-12-25T18:31:41.888Z,2.05
2022-12-25T18:34:09.974Z,2.10
2022-12-25T18:36:39.427Z,2.30
2022-12-25T18:39:07.798Z,2.78
2022-12-25T18:41:56.232Z,2.70
2022-12-25T18:44:24.283Z,2.67
2022-12-25T18:46:52.738Z,2.15
2022-12-25T18:49:20.986Z,2.63
2022-12-25T18:51:51.509Z,2.05
2022-12-25T18:54:19.622Z,4.47
2022-12-25T18:56:52.912Z,3.30
2022-12-25T18:59:21.813Z,4.60
2022-12-25T19:01:49.900Z,3.45
2022-12-25T19:04:18.511Z,2.13
2022-12-25T19:06:46.561Z,2.05
2022-12-25T19:09:16.148Z,3.33
2022-12-25T19:11:46.761Z,3.92
2022-12-25T19:14:15.892Z,5.65
2022-12-25T19:16:44.252Z,4.05
2022-12-25T19:19:13.126Z,5.95
2022-12-25T19:21:41.195Z,5.07
2022-12-25T19:24:09.344Z,4.93
2022-12-25T19:26:38.792Z,5.30
2022-12-25T19:29:06.876Z,2.70
2022-12-25T19:31:34.863Z,2.72
2022-12-25T19:34:02.922Z,3.65
2022-12-25T19:36:31.270Z,2.75
2022-12-25T19:38:59.619Z,2.53
2022-12-25T19:41:27.976Z,2.45
2022-12-25T19:43:57.508Z,3.35
2022-12-25T19:46:28.248Z,3.40
2022-12-25T19:48:56.958Z,3.13
2022-12-25T19:51:27.906Z,2.92
2022-12-25T19:53:56.428Z,3.65
2022-12-25T19:56:25.312Z,4.57
2022-12-25T19:58:54.879Z,2.78
2022-12-25T20:01:26.865Z,2.70
2022-12-25T20:03:55.276Z,2.80
2022-12-25T20:06:26.078Z,3.00
2022-12-25T20:08:56.261Z,2.88
2022-12-25T20:11:26.201Z,2.72
2022-12-25T20:13:55.067Z,2.85
2022-12-25T20:16:24.989Z,2.92
2022-12-25T20:18:53.944Z,2.50
2022-12-25T20:21:23.998Z,2.72
2022-12-25T20:23:53.653Z,2.50
2022-12-25T20:26:24.734Z,3.00
2022-12-25T20:28:53.383Z,3.00
2022-12-25T20:31:27.451Z,3.88
2022-12-25T20:33:58.452Z,4.60
2022-12-25T20:36:31.057Z,4.18
2022-12-25T20:39:02.691Z,3.90
2022-12-25T20:41:30.792Z,2.78
2022-12-25T20:43:59.140Z,2.85
2022-12-25T20:46:28.164Z,4.43
2022-12-25T20:48:57.629Z,8.98
2022-12-25T20:51:28.008Z,7.97
2022-12-25T20:53:56.446Z,6.63
2022-12-25T20:56:26.839Z,8.48
2022-12-25T20:58:56.121Z,3.35
2022-12-25T21:01:24.901Z,3.53
2022-12-25T21:03:54.586Z,3.83
2022-12-25T21:06:24.414Z,3.05
2022-12-25T21:08:52.836Z,3.67
2022-12-25T21:11:21.648Z,2.72
2022-12-25T21:13:50.508Z,2.83
2022-12-25T21:16:20.865Z,2.75
2022-12-25T21:18:50.258Z,3.20
2022-12-25T21:21:18.434Z,6.88
2022-12-25T21:23:48.101Z,15.40
2022-12-25T21:26:19.190Z,11.45
2022-12-25T21:28:47.622Z,4.13
2022-12-25T21:31:15.852Z,4.35
2022-12-25T21:33:52.234Z,4.03
2022-12-25T21:36:22.325Z,3.40
2022-12-25T21:38:56.267Z,4.55
2022-12-25T21:41:24.961Z,3.33
2022-12-25T21:43:53.221Z,4.03
2022-12-25T21:46:21.584Z,7.97
2022-12-25T21:48:50.230Z,11.88
2022-12-25T21:51:38.447Z,22.83
2022-12-25T21:54:08.929Z,9.77
2022-12-25T21:56:43.829Z,7.18
2022-12-25T21:59:14.535Z,4.35
2022-12-25T22:01:42.925Z,9.60
2022-12-25T22:04:11.642Z,7.60
2022-12-25T22:06:57.508Z,4.63
2022-12-25T22:09:27.555Z,5.60
2022-12-25T22:12:12.937Z,5.47
2022-12-25T22:14:56.309Z,6.30
2022-12-25T22:17:43.998Z,6.40
2022-12-25T22:20:14.435Z,5.60
2022-12-25T22:22:42.805Z,5.55
2022-12-25T22:25:13.571Z,5.50
2022-12-25T22:27:42.830Z,5.30
2022-12-25T22:30:13.335Z,9.00
2022-12-25T22:32:41.586Z,3.72
2022-12-25T22:35:11.079Z,4.38
2022-12-25T22:37:39.312Z,11.10
2022-12-25T22:40:09.179Z,8.15
2022-12-25T22:42:39.123Z,6.75
2022-12-25T22:45:07.926Z,11.20
2022-12-25T22:47:36.065Z,3.55
2022-12-25T22:50:04.379Z,3.00
2022-12-25T22:52:32.385Z,4.63
2022-12-25T22:55:00.601Z,2.20
2022-12-25T22:57:29.239Z,2.25
2022-12-25T22:59:58.912Z,2.10
2022-12-25T23:02:27.251Z,3.30
2022-12-25T23:04:55.499Z,4.10
2022-12-25T23:07:23.702Z,4.68
2022-12-25T23:09:51.865Z,4.50
2022-12-25T23:12:37.162Z,4.45
2022-12-25T23:15:07.999Z,4.22
2022-12-25T23:17:53.553Z,4.50
2022-12-25T23:20:41.503Z,3.90
2022-12-25T23:23:31.769Z,3.75
2022-12-25T23:26:16.447Z,3.47
2022-12-25T23:29:13.739Z,3.65
2022-12-25T23:31:44.272Z,3.90
2022-12-25T23:34:12.350Z,3.78
2022-12-25T23:36:40.394Z,4.00
2022-12-25T23:39:10.464Z,3.83
2022-12-25T23:41:39.707Z,3.80
2022-12-25T23:44:08.294Z,4.22
2022-12-25T23:46:36.496Z,4.38
2022-12-25T23:49:06.202Z,5.15
2022-12-25T23:51:36.782Z,4.50
2022-12-25T23:54:05.301Z,3.88
2022-12-25T23:56:33.761Z,4.68
2022-12-25T23:59:02.074Z,4.05
